Flight Track Log - Related Links

Times and Time Zones

All times are in EDT time to prevent confusion due to time zone crossing. See the N1767P flight status page for this flight to view local times or setup timezone preferences in your user account.

Time Position Orientation Groundspeed Altitude Reporting Facility
EDT Latitude Longitude Course Direction KTS MPH feet Rate Location/Type
Tue 05:55:02 PM 43.0647 -73.8497 354° North 116 133 800  Level Boston Center
Tue 05:55:50 PM 43.0878 -73.8531 354° North 133 153 1,600 991 Climbing Boston Center
Tue 05:56:51 PM 43.0706 -73.8867 235° Southwest 132 152 2,600 1,041 Climbing Boston Center
Tue 05:57:51 PM 43.0372 -73.8917 186° South 117 135 3,700 661 Climbing Boston Center
Tue 05:58:58 PM 42.9997 -73.8992 188° South 122 140 4,000 133 Climbing Boston Center
Tue 06:00:06 PM 42.9578 -73.9097 190° South 134 154 4,000  Level Boston Center
Tue 06:01:07 PM 42.9222 -73.9144 186° South 132 152 4,000  Level Boston Center
Tue 06:02:08 PM 42.8847 -73.9108 176° South 130 150 4,000  Level Boston Center
Tue 06:03:08 PM 42.8514 -73.9100 179° South 120 138 4,000  Level Boston Center
Tue 06:04:08 PM 42.8142 -73.9061 176° South 123 142 4,000 -209 Level Boston Center
Tue 06:05:03 PM 42.7786 -73.9025 176° South 145 167 3,600 -470 Descending Boston Center
Tue 06:06:03 PM 42.7369 -73.9017 179° South 159 183 3,100 -298 Descending Boston Center
Tue 06:07:04 PM 42.6933 -73.8978 176° South 149 171 3,000 -94 Descending Boston Center
Tue 06:08:10 PM 42.6494 -73.8939 176° South 140 161 2,900 -236 Descending Boston Center
Tue 06:09:11 PM 42.6081 -73.8844 170° South 158 182 2,500 -313 Descending Boston Center
Tue 06:10:05 PM 42.6003 -73.8364 102° East 157 181 2,300 -256 Descending Boston Center
Tue 06:11:08 PM 42.6236 -73.8031 46° Northeast 146 168 2,000 -281 Descending Boston Center
Tue 06:12:13 PM 42.6672 -73.8039 359° North 136 157 1,700 -478 Descending Boston Center
Tue 06:13:01 PM 42.6922 -73.8072 354° North 117 135 1,100 -606 Descending Boston Center
Tue 06:14:02 PM 42.7236 -73.8081 359° North 101 116 600 -73 Descending Boston Center
Tue 06:15:45 PM 42.7694 -73.8089 359° North 118 136 900 298 Climbing Boston Center
Tue 06:16:03 PM 42.7797 -73.8092 359° North 123 142 1,200 977 Climbing Boston Center
Tue 06:17:11 PM 42.8192 -73.8186 350° North 146 168 2,300 885 Climbing Boston Center
Tue 06:18:05 PM 42.8269 -73.8642 283° West 141 162 3,000 359 Climbing Boston Center
Tue 06:19:08 PM 42.8450 -73.9211 293° West 162 186 3,000  Level Boston Center
Tue 06:20:05 PM 42.8694 -73.9728 303° West 166 191 3,000  Level Boston Center
Tue 06:21:09 PM 42.9044 -74.0103 322° Northwest 164 189 3,000  Level Boston Center

Login

Don't have an account? Register now (free) for customized features, flight alerts, and more!